Time;durP1;ratioP1;P1;durP2;ratioP2;P2;SDS_P1;SDS_P2;PMS_P1;PMS_P2;Temp;Humidity;BMP_temperature;BMP_pressure;BME280_temperature;BME280_humidity;BME280_pressure;Samples;Min_cycle;Max_cycle;Signal;HPM_P1;HPM_P2
2022/01/01 00:02:20;;;;;;;320.52;132.57;;;6.50;99.90;;;;;;5076198;28;20021;-86
2022/01/01 00:04:47;;;;;;;305.77;127.18;;;6.40;99.90;;;;;;5076296;28;20029;-86
2022/01/01 00:07:14;;;;;;;271.10;112.18;;;6.30;99.90;;;;;;5076522;28;20021;-86
2022/01/01 00:09:42;;;;;;;269.15;115.03;;;6.20;99.90;;;;;;5077532;28;20082;-86
2022/01/01 00:12:10;;;;;;;317.75;129.45;;;6.20;99.90;;;;;;5076337;28;20021;-86
2022/01/01 00:14:36;;;;;;;289.73;116.63;;;6.10;99.90;;;;;;5076099;28;20032;-86
2022/01/01 00:17:03;;;;;;;274.20;113.80;;;6.00;99.90;;;;;;5076067;28;20024;-86
2022/01/01 00:19:31;;;;;;;291.42;119.32;;;6.00;99.90;;;;;;5075791;28;20493;-86
2022/01/01 00:21:57;;;;;;;349.13;135.75;;;5.90;99.90;;;;;;5076299;28;20021;-86
2022/01/01 00:24:24;;;;;;;330.38;129.98;;;5.90;99.90;;;;;;5076054;28;20028;-86
2022/01/01 00:26:49;;;;;;;254.32;107.65;;;5.70;99.90;;;;;;5076024;28;20027;-86
2022/01/01 00:29:15;;;;;;;291.15;118.85;;;5.70;99.90;;;;;;5075649;28;20542;-86
2022/01/01 00:31:41;;;;;;;286.15;117.07;;;5.80;99.90;;;;;;5075836;28;20062;-86
2022/01/01 00:34:07;;;;;;;385.63;148.77;;;5.90;99.90;;;;;;5075721;28;20067;-85
2022/01/01 00:36:33;;;;;;;295.65;116.78;;;5.90;99.90;;;;;;5075194;28;20028;-86
2022/01/01 00:38:58;;;;;;;283.98;117.50;;;5.80;99.90;;;;;;5076640;28;20029;-86
2022/01/01 00:41:24;;;;;;;256.98;109.10;;;5.90;99.90;;;;;;5075438;28;20464;-86
2022/01/01 00:43:50;;;;;;;243.13;102.20;;;5.90;99.90;;;;;;5075522;28;20055;-86
2022/01/01 00:46:16;;;;;;;262.85;106.35;;;5.90;99.90;;;;;;5075507;28;20360;-86
2022/01/01 00:48:42;;;;;;;281.20;106.88;;;6.00;99.90;;;;;;5075626;28;20021;-86
2022/01/01 00:51:08;;;;;;;235.57;94.78;;;6.00;99.90;;;;;;5075580;28;20031;-86
2022/01/01 00:53:34;;;;;;;236.90;95.70;;;5.90;99.90;;;;;;5075461;28;20028;-87
2022/01/01 00:56:00;;;;;;;308.77;120.28;;;5.80;99.90;;;;;;5075672;28;20093;-86
2022/01/01 00:58:25;;;;;;;301.05;115.82;;;5.80;99.90;;;;;;5075483;28;20031;-86
2022/01/01 01:00:51;;;;;;;341.23;127.00;;;5.80;99.90;;;;;;5076745;28;20039;-87
2022/01/01 01:03:18;;;;;;;274.10;108.80;;;5.90;99.90;;;;;;5075571;28;20028;-86
2022/01/01 01:05:46;;;;;;;316.70;117.32;;;5.90;99.90;;;;;;5075014;28;20070;-86
2022/01/01 01:08:14;;;;;;;339.40;129.27;;;5.90;99.90;;;;;;5075055;28;20020;-86
2022/01/01 01:10:41;;;;;;;392.95;146.40;;;5.90;99.90;;;;;;5074308;28;20048;-86
2022/01/01 01:13:08;;;;;;;409.48;147.95;;;5.80;99.90;;;;;;5074971;28;20479;-86
2022/01/01 01:15:34;;;;;;;408.55;149.98;;;5.80;99.90;;;;;;5076429;28;20021;-86
2022/01/01 01:18:03;;;;;;;426.08;144.98;;;5.70;99.90;;;;;;5074990;28;20570;-87
2022/01/01 01:20:29;;;;;;;363.50;127.53;;;5.70;99.90;;;;;;5074841;28;20025;-86
2022/01/01 01:22:55;;;;;;;332.85;125.15;;;5.70;99.90;;;;;;5076184;28;20024;-86
2022/01/01 01:25:22;;;;;;;293.23;113.68;;;5.80;99.90;;;;;;5075313;28;20043;-86
2022/01/01 01:27:52;;;;;;;250.60;102.30;;;5.80;99.90;;;;;;5074928;28;20047;-87
2022/01/01 01:30:19;;;;;;;233.18;93.38;;;5.80;99.90;;;;;;5074756;28;20020;-87
2022/01/01 01:32:46;;;;;;;219.38;88.72;;;5.80;99.90;;;;;;5075075;28;20055;-86
2022/01/01 01:35:13;;;;;;;214.13;84.85;;;5.80;99.90;;;;;;5074440;28;20051;-87
2022/01/01 01:37:39;;;;;;;197.55;77.25;;;5.80;99.90;;;;;;5074531;28;20025;-86
2022/01/01 01:40:07;;;;;;;200.30;80.47;;;5.80;99.90;;;;;;5075335;28;20531;-87
2022/01/01 01:42:34;;;;;;;225.50;89.00;;;5.80;99.90;;;;;;5074713;28;20021;-87
2022/01/01 01:45:03;;;;;;;232.80;91.13;;;5.80;99.90;;;;;;5074568;28;20025;-86
2022/01/01 01:47:32;;;;;;;205.73;79.55;;;5.80;99.90;;;;;;5074393;28;20066;-86
2022/01/01 01:50:00;;;;;;;192.73;79.10;;;5.70;99.90;;;;;;5074057;28;20024;-87
2022/01/01 01:52:32;;;;;;;181.27;74.82;;;5.70;99.90;;;;;;5074800;28;20024;-86
2022/01/01 01:54:58;;;;;;;182.63;73.43;;;5.70;99.90;;;;;;5074431;28;20095;-87
2022/01/01 01:57:25;;;;;;;172.98;69.03;;;5.70;99.90;;;;;;5074698;28;20025;-86
2022/01/01 01:59:52;;;;;;;170.93;68.68;;;5.70;99.90;;;;;;5075306;28;20482;-87
2022/01/01 02:02:18;;;;;;;189.95;75.28;;;5.70;99.90;;;;;;5075732;28;20054;-86
2022/01/01 02:04:44;;;;;;;241.77;94.00;;;5.80;99.90;;;;;;5074421;28;20024;-86
2022/01/01 02:07:11;;;;;;;233.63;92.80;;;5.70;99.90;;;;;;5074459;28;20151;-87
2022/01/01 07:44:49;;;;;;;101.65;44.17;;;2.90;99.90;;;;;;5093703;27;20378;-86
2022/01/01 07:47:15;;;;;;;101.78;45.70;;;3.00;99.90;;;;;;5091037;28;20024;-87
2022/01/01 07:49:42;;;;;;;106.28;47.70;;;3.20;99.90;;;;;;5091494;28;20111;-87
2022/01/01 07:52:08;;;;;;;107.70;47.75;;;3.40;99.90;;;;;;5091767;28;20028;-87
2022/01/01 07:54:34;;;;;;;126.32;55.72;;;3.60;99.90;;;;;;5091672;28;20027;-87
2022/01/01 07:57:00;;;;;;;158.32;63.83;;;3.80;99.90;;;;;;5091558;28;20028;-87
2022/01/01 07:59:26;;;;;;;214.27;90.63;;;3.90;99.90;;;;;;5091525;28;20028;-87
2022/01/01 08:01:52;;;;;;;241.05;97.75;;;4.10;99.90;;;;;;5091156;28;20115;-87
2022/01/01 08:04:17;;;;;;;230.02;94.95;;;4.20;99.90;;;;;;5091051;28;20487;-87
2022/01/01 08:06:43;;;;;;;211.93;88.05;;;4.40;99.90;;;;;;5091453;28;20020;-88
2022/01/01 08:09:09;;;;;;;198.32;83.13;;;4.50;99.90;;;;;;5091360;28;20020;-87
2022/01/01 08:11:35;;;;;;;200.20;80.53;;;4.70;99.90;;;;;;5091397;28;20031;-87
2022/01/01 08:14:01;;;;;;;185.18;73.72;;;4.90;99.90;;;;;;5091371;28;20040;-87
2022/01/01 08:16:26;;;;;;;162.15;69.47;;;5.00;99.90;;;;;;5091270;28;20027;-87
2022/01/01 08:18:52;;;;;;;165.60;69.32;;;5.20;99.90;;;;;;5091026;28;20026;-88
2022/01/01 08:21:18;;;;;;;156.50;64.70;;;5.30;99.90;;;;;;5090451;28;20026;-87
2022/01/01 08:23:44;;;;;;;184.25;76.95;;;5.40;99.90;;;;;;5090868;28;20028;-87
2022/01/01 08:26:10;;;;;;;161.18;67.57;;;5.50;99.90;;;;;;5090660;28;20028;-87
2022/01/01 08:28:36;;;;;;;143.02;64.45;;;5.60;99.90;;;;;;5090830;28;20042;-87
2022/01/01 08:31:01;;;;;;;184.80;85.40;;;5.60;99.90;;;;;;5090852;28;20024;-88
2022/01/01 08:33:27;;;;;;;210.00;91.30;;;5.70;99.90;;;;;;5090765;28;20028;-88
2022/01/01 08:35:53;;;;;;;205.85;91.35;;;5.70;99.90;;;;;;5090919;28;20024;-87
2022/01/01 08:38:19;;;;;;;183.05;82.10;;;5.80;99.90;;;;;;5090887;28;20395;-87
2022/01/01 08:40:45;;;;;;;179.30;82.05;;;5.80;99.90;;;;;;5090705;28;20052;-88
2022/01/01 08:43:11;;;;;;;173.95;76.30;;;5.90;99.90;;;;;;5090331;28;20512;-88
2022/01/01 08:45:38;;;;;;;156.23;73.85;;;6.10;99.90;;;;;;5090500;28;20062;-87
2022/01/01 08:48:06;;;;;;;154.73;71.00;;;6.30;99.90;;;;;;5090294;28;20027;-87
2022/01/01 08:50:32;;;;;;;190.95;86.13;;;6.50;99.90;;;;;;5090186;28;20028;-88
2022/01/01 08:52:58;;;;;;;180.25;84.00;;;6.50;99.90;;;;;;5092182;28;20031;-87
2022/01/01 08:55:25;;;;;;;251.02;108.50;;;6.60;99.90;;;;;;5080728;28;20027;-88
2022/01/01 08:57:51;;;;;;;250.45;106.55;;;6.80;99.90;;;;;;5077064;28;20048;-88
2022/01/01 09:00:17;;;;;;;286.13;122.35;;;6.90;99.90;;;;;;5076602;28;20024;-87
2022/01/01 09:02:43;;;;;;;330.45;135.02;;;7.00;99.90;;;;;;5076699;28;20029;-88
2022/01/01 09:05:09;;;;;;;311.75;130.05;;;7.10;99.90;;;;;;5076903;28;20383;-88
2022/01/01 09:07:35;;;;;;;311.48;129.88;;;7.10;99.90;;;;;;5076552;28;20424;-88
2022/01/01 09:10:03;;;;;;;321.90;134.43;;;7.20;99.90;;;;;;5076776;28;20016;-88
2022/01/01 09:12:29;;;;;;;359.05;150.13;;;7.30;99.90;;;;;;5076891;28;20084;-88
2022/01/01 09:14:56;;;;;;;331.77;139.23;;;7.20;99.90;;;;;;5076830;28;20105;-88
2022/01/01 09:17:22;;;;;;;269.67;113.45;;;7.20;99.90;;;;;;5076380;28;20091;-87
2022/01/01 09:19:48;;;;;;;241.98;101.00;;;7.20;99.90;;;;;;5076637;28;20471;-88
2022/01/01 09:22:14;;;;;;;209.05;97.22;;;7.20;99.90;;;;;;5076785;28;20070;-87
2022/01/01 09:24:40;;;;;;;207.18;95.45;;;7.20;99.90;;;;;;5076359;28;20425;-87
2022/01/01 09:27:08;;;;;;;210.50;95.22;;;7.20;99.90;;;;;;5075925;28;20020;-88
2022/01/01 09:29:34;;;;;;;215.52;96.53;;;7.30;99.90;;;;;;5075803;28;20025;-88
2022/01/01 09:32:00;;;;;;;223.68;99.10;;;7.30;99.90;;;;;;5076314;28;20497;-88
2022/01/01 09:34:26;;;;;;;208.38;99.05;;;7.40;99.90;;;;;;5076059;28;20028;-88
2022/01/01 09:36:54;;;;;;;239.80;103.82;;;7.50;99.90;;;;;;5076598;28;20112;-88
2022/01/01 09:39:20;;;;;;;198.23;91.40;;;7.50;99.90;;;;;;5076086;28;20043;-88
2022/01/01 09:41:46;;;;;;;225.70;99.63;;;7.60;99.90;;;;;;5076410;28;20032;-88
2022/01/01 09:44:14;;;;;;;224.05;104.43;;;7.60;99.90;;;;;;5075571;28;20491;-88
2022/01/01 09:46:44;;;;;;;252.38;111.43;;;7.60;99.90;;;;;;5075911;28;20425;-88
2022/01/01 09:49:12;;;;;;;254.30;115.43;;;7.70;99.90;;;;;;5076061;28;20054;-88
2022/01/01 09:51:38;;;;;;;256.15;107.32;;;7.70;99.90;;;;;;5075685;28;20364;-88
2022/01/01 09:54:04;;;;;;;216.18;98.28;;;7.80;99.90;;;;;;5076005;28;20054;-88
2022/01/01 09:56:29;;;;;;;206.18;93.13;;;7.90;99.90;;;;;;5075774;28;20032;-87
2022/01/01 09:58:55;;;;;;;190.20;89.88;;;8.00;99.90;;;;;;5075612;28;20032;-88
2022/01/01 10:01:21;;;;;;;188.02;90.72;;;8.10;99.90;;;;;;5075616;28;20075;-86
2022/01/01 10:03:50;;;;;;;183.32;88.28;;;8.20;99.90;;;;;;5075048;28;20029;-88
2022/01/01 10:06:21;;;;;;;160.82;78.75;;;8.30;99.90;;;;;;5074735;28;20021;-88
2022/01/01 10:08:58;;;;;;;152.07;73.30;;;8.30;99.90;;;;;;5075486;28;20112;-88
2022/01/01 10:11:25;;;;;;;156.07;71.30;;;8.30;99.90;;;;;;5075562;28;20052;-88
2022/01/01 10:13:51;;;;;;;155.80;71.18;;;8.50;99.90;;;;;;5075751;28;20039;-88
2022/01/01 10:16:17;;;;;;;119.40;56.80;;;8.50;99.90;;;;;;5075400;28;20024;-88
2022/01/01 10:18:48;;;;;;;122.30;56.55;;;8.70;99.90;;;;;;5075409;28;20498;-88
2022/01/01 10:21:23;;;;;;;136.07;60.70;;;8.80;99.90;;;;;;5075083;28;20114;-88
2022/01/01 10:23:52;;;;;;;119.90;57.23;;;8.90;99.90;;;;;;5075299;28;20021;-88
2022/01/01 10:29:06;;;;;;;;;;;9.10;99.90;;;;;;5057372;28;20139;-88
2022/01/01 10:31:33;;;;;;;148.48;69.07;;;9.30;99.90;;;;;;5055166;28;20050;-88
2022/01/01 10:34:00;;;;;;;151.30;70.18;;;9.50;99.90;;;;;;5055230;28;20140;-88
2022/01/01 10:36:30;;;;;;;141.43;62.70;;;9.60;99.90;;;;;;5055561;28;20021;-88
2022/01/01 10:39:10;;;;;;;118.05;52.10;;;9.80;99.90;;;;;;5054908;28;20029;-88
2022/01/01 10:41:56;;;;;;;109.22;49.47;;;9.90;99.90;;;;;;5055044;28;20533;-88
2022/01/01 10:44:27;;;;;;;74.22;35.75;;;10.00;99.90;;;;;;5054496;28;20055;-88
2022/01/01 10:46:53;;;;;;;48.92;26.05;;;10.20;99.90;;;;;;5054697;28;20029;-88
2022/01/01 10:49:50;;;;;;;53.83;27.50;;;10.40;99.90;;;;;;5054677;28;20047;-88
2022/01/01 10:52:29;;;;;;;54.38;26.45;;;10.50;99.90;;;;;;5054747;28;20024;-88
2022/01/01 10:54:56;;;;;;;51.65;25.38;;;10.70;99.90;;;;;;5054874;28;20056;-88
2022/01/01 10:57:27;;;;;;;53.95;25.77;;;10.90;99.90;;;;;;5054666;28;20045;-88
2022/01/01 11:00:23;;;;;;;56.83;29.50;;;11.00;99.90;;;;;;5054506;28;20060;-88
2022/01/01 11:02:58;;;;;;;57.08;29.40;;;11.30;99.90;;;;;;5050048;28;20033;-88
2022/01/01 11:05:32;;;;;;;59.38;30.50;;;11.50;99.90;;;;;;5054390;28;20029;-86
2022/01/01 11:07:58;;;;;;;51.17;27.35;;;11.70;99.90;;;;;;5054529;28;20017;-86
2022/01/01 11:10:26;;;;;;;57.28;27.98;;;11.90;99.90;;;;;;5054362;28;20391;-87
2022/01/01 11:12:53;;;;;;;50.90;26.85;;;12.00;99.90;;;;;;5054159;28;20029;-86
2022/01/01 11:15:20;;;;;;;49.97;26.65;;;12.20;99.90;;;;;;5054347;28;20025;-86
2022/01/01 11:17:46;;;;;;;51.78;26.98;;;12.40;99.90;;;;;;5054442;28;20092;-88
2022/01/01 11:20:13;;;;;;;55.05;29.45;;;12.60;99.90;;;;;;5054108;28;20017;-86
2022/01/01 11:22:39;;;;;;;49.75;27.15;;;12.90;99.90;;;;;;5054684;28;20025;-86
2022/01/01 11:25:05;;;;;;;50.88;26.23;;;13.20;99.90;;;;;;5054186;28;20040;-86
2022/01/01 11:27:31;;;;;;;49.95;27.77;;;13.40;99.90;;;;;;5054086;28;20116;-86
2022/01/01 11:29:59;;;;;;;54.75;28.00;;;13.50;99.90;;;;;;5053911;28;20050;-86
2022/01/01 11:32:37;;;;;;;62.63;33.38;;;13.60;99.80;;;;;;5054203;28;20020;-86
2022/01/01 11:35:07;;;;;;;68.53;35.05;;;13.70;99.90;;;;;;5053940;28;20025;-86
2022/01/01 11:38:03;;;;;;;59.60;31.40;;;13.90;99.90;;;;;;5053895;28;20067;-86
2022/01/01 11:40:41;;;;;;;61.40;33.10;;;14.00;99.50;;;;;;5054145;28;20053;-86
2022/01/01 11:43:27;;;;;;;56.70;32.25;;;14.20;99.50;;;;;;5053852;28;20079;-86
2022/01/01 11:45:58;;;;;;;61.40;31.80;;;14.40;99.50;;;;;;5053937;28;20033;-87
2022/01/01 11:48:43;;;;;;;58.95;31.48;;;14.70;99.60;;;;;;5053949;28;20029;-86
2022/01/01 11:51:48;;;;;;;55.30;29.98;;;14.90;98.10;;;;;;5054008;28;20021;-86
2022/01/01 11:54:15;;;;;;;53.50;29.85;;;15.10;98.30;;;;;;5056784;28;20123;-87
2022/01/01 11:56:49;;;;;;;54.33;27.48;;;15.30;97.90;;;;;;5055442;28;20049;-88
2022/01/01 11:59:25;;;;;;;48.60;26.02;;;15.60;97.40;;;;;;5053798;28;20025;-87
2022/01/01 12:01:53;;;;;;;48.35;24.15;;;15.70;97.40;;;;;;5053741;28;20025;-88
2022/01/01 12:04:24;;;;;;;47.65;23.95;;;15.70;96.30;;;;;;5053905;28;20086;-88
2022/01/01 12:07:13;;;;;;;47.45;23.88;;;16.00;97.40;;;;;;5053856;28;20036;-88
2022/01/01 12:10:04;;;;;;;45.50;23.85;;;16.50;96.40;;;;;;5050814;28;20075;-88
2022/01/01 12:12:43;;;;;;;47.50;25.27;;;16.60;94.90;;;;;;5053678;28;20079;-87
2022/01/01 12:15:32;;;;;;;51.55;28.38;;;16.80;95.20;;;;;;5052952;28;20025;-88
2022/01/01 12:17:58;;;;;;;51.50;27.27;;;17.10;94.10;;;;;;5054485;28;20116;-87
2022/01/01 12:20:52;;;;;;;52.42;29.02;;;17.30;94.00;;;;;;5053755;28;20079;-88
2022/01/01 12:23:24;;;;;;;52.25;28.00;;;17.50;93.40;;;;;;5053711;28;20021;-88
2022/01/01 12:25:52;;;;;;;50.78;26.50;;;17.60;94.10;;;;;;5053029;28;20029;-88
2022/01/01 12:28:23;;;;;;;50.75;26.67;;;17.90;93.10;;;;;;5052964;28;20029;-88
2022/01/01 12:30:54;;;;;;;51.97;26.90;;;18.10;92.30;;;;;;5055913;28;20044;-88
2022/01/01 12:34:02;;;;;;;47.30;25.92;;;18.30;92.10;;;;;;5057167;28;20394;-88
2022/01/01 12:36:31;;;;;;;42.88;22.98;;;18.50;91.80;;;;;;5056858;28;20066;-88
2022/01/01 12:39:05;;;;;;;43.40;23.60;;;18.70;90.50;;;;;;5056637;28;20044;-88
2022/01/01 12:41:44;;;;;;;43.20;23.00;;;18.90;90.40;;;;;;5056506;28;20024;-88
2022/01/01 12:44:15;;;;;;;47.45;24.55;;;19.00;88.50;;;;;;5056294;28;20588;-88
2022/01/01 12:47:01;;;;;;;41.33;22.48;;;19.00;87.20;;;;;;5056432;28;20047;-89
2022/01/01 12:49:28;;;;;;;40.42;21.05;;;19.10;89.30;;;;;;5056451;28;20048;-88
2022/01/01 12:51:56;;;;;;;40.25;22.00;;;19.20;89.50;;;;;;5056983;28;20036;-88
2022/01/01 12:54:30;;;;;;;38.42;21.58;;;19.30;87.60;;;;;;5056537;28;20032;-88
2022/01/01 12:56:56;;;;;;;43.13;21.05;;;19.50;85.30;;;;;;5056710;28;20029;-88
2022/01/01 12:59:22;;;;;;;38.63;21.52;;;19.60;86.30;;;;;;5056642;28;20048;-88
2022/01/01 13:02:02;;;;;;;41.80;21.95;;;19.60;82.70;;;;;;5056699;28;20063;-88
2022/01/01 13:04:28;;;;;;;46.28;23.83;;;19.60;82.80;;;;;;5056629;28;20075;-88
2022/01/01 13:06:57;;;;;;;45.92;24.38;;;19.60;81.90;;;;;;5056293;28;20021;-88
2022/01/01 13:09:30;;;;;;;44.78;24.92;;;19.70;81.50;;;;;;5056769;28;20025;-88
2022/01/01 13:11:59;;;;;;;46.13;23.98;;;19.70;82.10;;;;;;5056543;28;20025;-88
2022/01/01 13:14:30;;;;;;;43.80;23.52;;;19.70;80.70;;;;;;5056307;28;20025;-89
2022/01/01 13:16:57;;;;;;;44.45;23.90;;;19.70;81.70;;;;;;5056631;28;20021;-88
2022/01/01 13:19:34;;;;;;;44.50;23.50;;;19.80;82.20;;;;;;5056243;28;20103;-88
2022/01/01 13:22:00;;;;;;;45.55;23.90;;;19.90;80.30;;;;;;5056253;28;20029;-88
2022/01/01 13:24:30;;;;;;;47.55;24.00;;;20.10;80.00;;;;;;5056197;28;20071;-88
2022/01/01 13:26:57;;;;;;;41.53;22.23;;;20.10;80.90;;;;;;5056774;28;20036;-89
2022/01/01 13:29:24;;;;;;;34.90;19.17;;;20.10;79.60;;;;;;5056382;28;20022;-88
2022/01/01 13:31:58;;;;;;;16.83;9.48;;;20.20;79.80;;;;;;5056136;28;20024;-89
2022/01/01 13:34:24;;;;;;;11.50;5.95;;;20.30;76.60;;;;;;5055981;28;20107;-88
2022/01/01 13:36:50;;;;;;;10.23;5.38;;;20.20;75.50;;;;;;5056099;28;20029;-89
2022/01/01 13:39:21;;;;;;;6.63;3.88;;;20.00;75.80;;;;;;5055388;28;20021;-88
2022/01/01 13:41:48;;;;;;;5.90;3.75;;;19.80;76.50;;;;;;5055754;28;20079;-88
2022/01/01 13:44:20;;;;;;;6.72;3.72;;;19.30;76.50;;;;;;5055608;28;20149;-88
2022/01/01 13:46:47;;;;;;;6.60;3.33;;;18.80;77.50;;;;;;5055839;28;20530;-88
2022/01/01 13:49:14;;;;;;;9.13;4.15;;;18.80;78.00;;;;;;5055973;28;20025;-88
2022/01/01 13:51:40;;;;;;;7.38;2.53;;;18.40;79.20;;;;;;5055740;28;20032;-88
2022/01/01 13:54:09;;;;;;;5.80;3.13;;;17.90;77.80;;;;;;5055654;28;20032;-88
2022/01/01 13:56:36;;;;;;;4.63;2.88;;;17.80;80.20;;;;;;5055565;28;20024;-88
2022/01/01 13:59:04;;;;;;;6.40;3.35;;;18.10;78.40;;;;;;5056033;28;20028;-88
2022/01/01 14:01:36;;;;;;;6.57;3.72;;;18.40;78.60;;;;;;5055726;28;20032;-88
2022/01/01 14:04:05;;;;;;;5.57;3.38;;;18.70;78.00;;;;;;5055580;28;20032;-88
2022/01/01 14:06:31;;;;;;;7.50;3.80;;;18.90;77.90;;;;;;5056325;28;20047;-88
2022/01/01 14:08:59;;;;;;;6.63;3.20;;;19.20;78.00;;;;;;5056374;28;20103;-88
2022/01/01 14:11:34;;;;;;;5.53;3.30;;;19.30;77.80;;;;;;5055550;28;20031;-88
2022/01/01 14:14:27;;;;;;;6.15;3.72;;;19.30;76.20;;;;;;5055947;28;20033;-88
2022/01/01 14:16:53;;;;;;;9.30;5.47;;;19.40;76.50;;;;;;5054720;28;20034;-88
2022/01/01 14:19:21;;;;;;;9.48;5.63;;;19.30;76.50;;;;;;5055541;28;20021;-88
2022/01/01 14:21:53;;;;;;;7.30;4.05;;;19.20;76.90;;;;;;5055338;28;20088;-88
2022/01/01 14:24:23;;;;;;;4.88;3.40;;;19.20;77.30;;;;;;5055384;28;20029;-88
2022/01/01 14:26:54;;;;;;;4.05;2.70;;;19.20;75.70;;;;;;5055044;28;20438;-88
2022/01/01 14:29:23;;;;;;;6.85;3.45;;;19.00;75.30;;;;;;5055023;28;20402;-88
2022/01/01 14:31:51;;;;;;;17.65;7.10;;;18.80;76.60;;;;;;5054543;28;20021;-88
2022/01/01 14:34:18;;;;;;;18.33;6.65;;;18.50;76.40;;;;;;5055263;28;20102;-89
2022/01/01 14:36:51;;;;;;;17.02;7.05;;;18.50;77.40;;;;;;5054982;28;20027;-88
2022/01/01 14:39:19;;;;;;;22.70;10.27;;;18.50;77.10;;;;;;5055910;28;20021;-88
2022/01/01 14:41:46;;;;;;;18.20;7.05;;;18.20;77.90;;;;;;5055256;28;20485;-88
2022/01/01 14:44:13;;;;;;;14.70;6.55;;;17.80;78.00;;;;;;5054565;28;20090;-88
2022/01/01 14:46:43;;;;;;;17.98;8.05;;;17.50;79.80;;;;;;5054975;28;20028;-88
2022/01/01 14:49:35;;;;;;;12.20;5.70;;;17.40;80.20;;;;;;5055258;28;20483;-88
2022/01/01 14:52:09;;;;;;;21.00;9.65;;;17.10;81.20;;;;;;5054551;28;20021;-88
2022/01/01 14:54:56;;;;;;;16.58;7.95;;;17.10;81.20;;;;;;5056034;28;20091;-88
2022/01/01 14:57:43;;;;;;;17.85;8.75;;;17.00;82.40;;;;;;5054511;28;20025;-89
2022/01/01 15:00:17;;;;;;;19.65;8.55;;;17.00;82.60;;;;;;5054693;28;20067;-88
2022/01/01 15:02:45;;;;;;;14.87;7.33;;;16.90;84.90;;;;;;5054517;28;20028;-88
2022/01/01 15:05:12;;;;;;;18.63;8.80;;;16.70;83.70;;;;;;5054464;28;20017;-88
2022/01/01 15:07:39;;;;;;;28.88;12.85;;;16.70;83.70;;;;;;5054535;28;20476;-88
2022/01/01 15:10:10;;;;;;;70.15;31.20;;;16.60;84.00;;;;;;5054197;28;20549;-88
2022/01/01 15:12:37;;;;;;;148.23;60.78;;;16.50;84.40;;;;;;5055308;28;20025;-88
2022/01/01 15:15:04;;;;;;;148.05;65.50;;;16.40;85.50;;;;;;5054152;28;20071;-88
2022/01/01 15:17:31;;;;;;;143.25;62.25;;;16.20;87.60;;;;;;5054062;28;20111;-88
2022/01/01 15:19:58;;;;;;;169.05;70.88;;;16.10;86.70;;;;;;5054130;28;20087;-88
2022/01/01 15:23:01;;;;;;;172.20;73.90;;;15.90;87.40;;;;;;5054158;28;20471;-88
2022/01/01 15:25:28;;;;;;;146.50;69.43;;;15.50;89.90;;;;;;5054063;28;20044;-88
2022/01/01 15:27:56;;;;;;;139.63;64.35;;;15.20;90.60;;;;;;5053850;28;20024;-88
2022/01/01 15:31:01;;;;;;;139.25;64.30;;;15.10;90.30;;;;;;5053953;28;20060;-88
2022/01/01 15:33:28;;;;;;;135.18;60.65;;;15.00;90.50;;;;;;5056706;28;20072;-88
2022/01/01 15:36:10;;;;;;;156.02;67.38;;;15.00;90.90;;;;;;5053885;28;20040;-87
2022/01/01 15:38:48;;;;;;;201.60;83.30;;;14.90;91.00;;;;;;5054128;28;20025;-88
2022/01/01 15:43:41;;;;;;;429.70;170.77;;;14.70;91.30;;;;;;5054984;28;20072;-88
2022/01/01 15:46:07;;;;;;;397.17;149.38;;;14.60;91.50;;;;;;5053766;28;20471;-88
2022/01/01 15:48:33;;;;;;;356.52;138.48;;;14.50;91.50;;;;;;5054000;28;20024;-88
2022/01/01 15:51:00;;;;;;;290.20;117.05;;;14.20;91.90;;;;;;5053687;28;20048;-88
2022/01/01 15:53:26;;;;;;;249.23;97.80;;;14.10;92.30;;;;;;5053903;28;20029;-88
2022/01/01 15:55:57;;;;;;;239.52;102.15;;;14.00;92.40;;;;;;5053096;28;20021;-88
2022/01/01 15:58:24;;;;;;;229.68;95.18;;;14.00;92.90;;;;;;5054138;28;20120;-88
2022/01/01 16:00:53;;;;;;;211.10;86.75;;;13.90;93.10;;;;;;5053947;28;20021;-88
2022/01/01 16:04:06;;;;;;;211.10;85.03;;;13.90;92.50;;;;;;5053787;28;20057;-88
2022/01/01 16:06:37;;;;;;;393.20;168.55;;;13.80;93.10;;;;;;5040421;28;20082;-87
2022/01/01 16:09:04;;;;;;;278.92;117.45;;;13.70;93.00;;;;;;5055792;28;20029;-88
2022/01/01 16:11:31;;;;;;;315.48;132.55;;;13.60;93.40;;;;;;5058777;28;20029;-88
2022/01/01 16:13:58;;;;;;;304.88;126.15;;;13.50;93.90;;;;;;5057590;28;20115;-87
2022/01/01 16:16:25;;;;;;;293.98;125.28;;;13.50;93.20;;;;;;5058819;28;20406;-87
2022/01/01 16:18:53;;;;;;;317.83;137.77;;;13.40;94.00;;;;;;5057722;28;20055;-87
2022/01/01 16:21:24;;;;;;;300.27;132.75;;;13.30;93.60;;;;;;5057855;28;20035;-87
2022/01/01 16:23:51;;;;;;;332.73;138.02;;;13.20;94.20;;;;;;5057552;28;20119;-87
2022/01/01 16:26:19;;;;;;;293.70;121.32;;;13.20;93.90;;;;;;5057329;28;20021;-87
2022/01/01 16:28:47;;;;;;;266.27;114.43;;;13.20;93.90;;;;;;5057889;28;20025;-87
2022/01/01 16:31:17;;;;;;;268.95;113.35;;;13.10;94.00;;;;;;5057127;28;20029;-87
2022/01/01 16:33:45;;;;;;;231.45;102.13;;;12.90;94.30;;;;;;5056912;28;20475;-88
2022/01/01 16:36:12;;;;;;;288.17;117.38;;;12.90;94.80;;;;;;5058489;28;20096;-87
2022/01/01 16:38:38;;;;;;;260.92;108.40;;;12.80;94.20;;;;;;5057170;28;20032;-87
2022/01/01 16:41:10;;;;;;;239.48;102.65;;;12.80;94.30;;;;;;5056955;28;20391;-87
2022/01/01 16:43:57;;;;;;;272.70;111.32;;;12.70;94.60;;;;;;5056837;28;20550;-87
2022/01/01 16:46:42;;;;;;;295.38;116.68;;;12.70;94.70;;;;;;5056762;28;20128;-87
2022/01/01 16:49:15;;;;;;;261.60;116.63;;;12.70;94.70;;;;;;5057075;28;20078;-87
2022/01/01 16:51:48;;;;;;;321.38;140.27;;;12.60;94.60;;;;;;5056908;28;20112;-87
2022/01/01 16:54:15;;;;;;;301.63;127.25;;;12.40;95.10;;;;;;5056755;28;20064;-87
2022/01/01 16:56:56;;;;;;;312.33;135.05;;;12.40;95.10;;;;;;5056932;28;20068;-87
2022/01/01 16:59:24;;;;;;;345.65;142.55;;;12.10;95.40;;;;;;5056607;28;20024;-87
2022/01/01 17:01:54;;;;;;;338.75;137.57;;;11.90;95.50;;;;;;5056975;28;20025;-87
2022/01/01 17:04:24;;;;;;;291.45;126.05;;;11.80;96.20;;;;;;5056794;28;20031;-87
2022/01/01 17:06:51;;;;;;;292.35;120.50;;;11.70;96.60;;;;;;5056101;28;20027;-87
2022/01/01 17:09:23;;;;;;;275.85;114.93;;;11.70;96.70;;;;;;5056445;28;20365;-87
2022/01/01 17:11:49;;;;;;;248.90;106.40;;;11.70;96.50;;;;;;5056933;28;20029;-87
2022/01/01 17:14:16;;;;;;;272.90;120.07;;;11.80;96.50;;;;;;5056280;28;20398;-87
2022/01/01 17:17:03;;;;;;;284.08;122.65;;;11.80;96.20;;;;;;5056059;28;20017;-87
2022/01/01 17:19:46;;;;;;;280.80;117.57;;;11.80;96.10;;;;;;5056427;28;20419;-87
2022/01/01 17:22:25;;;;;;;281.95;123.45;;;11.60;96.20;;;;;;5056475;28;20021;-87
2022/01/01 17:24:58;;;;;;;376.83;152.13;;;11.60;96.40;;;;;;5056545;28;20063;-87
2022/01/01 17:27:31;;;;;;;328.48;137.75;;;11.50;97.10;;;;;;5056476;28;20025;-87
2022/01/01 17:30:00;;;;;;;366.77;149.32;;;11.50;97.20;;;;;;5056470;28;20070;-87
2022/01/01 17:32:27;;;;;;;309.15;128.63;;;11.60;96.80;;;;;;5056411;28;20112;-87
2022/01/01 17:37:40;;;;;;;303.02;123.55;;;11.50;96.80;;;;;;5057435;28;20031;-87
2022/01/01 17:40:08;;;;;;;273.23;114.25;;;11.40;96.70;;;;;;5056042;28;20016;-87
2022/01/01 17:42:36;;;;;;;263.15;113.10;;;11.40;96.60;;;;;;5055926;28;20108;-87
2022/01/01 17:45:03;;;;;;;291.65;123.72;;;11.30;96.80;;;;;;5056092;28;20495;-87
2022/01/01 17:47:30;;;;;;;303.55;126.03;;;11.30;96.90;;;;;;5055974;28;20514;-87
2022/01/01 17:50:18;;;;;;;305.58;125.95;;;11.10;97.10;;;;;;5055803;28;20094;-87
2022/01/01 17:52:46;;;;;;;293.15;123.68;;;11.00;97.50;;;;;;5055605;28;20527;-87
2022/01/01 17:55:13;;;;;;;317.48;133.13;;;11.10;97.40;;;;;;5055733;28;20536;-87
2022/01/01 17:57:40;;;;;;;289.58;120.80;;;11.10;97.50;;;;;;5055777;28;20059;-87
2022/01/01 18:00:12;;;;;;;285.83;122.78;;;11.10;97.70;;;;;;5055842;28;20021;-87
2022/01/01 18:02:46;;;;;;;268.52;113.63;;;11.10;97.60;;;;;;5055708;28;20021;-87
2022/01/01 18:05:12;;;;;;;241.65;102.90;;;11.10;97.70;;;;;;5055766;28;20028;-87
2022/01/01 18:07:43;;;;;;;237.63;100.45;;;11.00;97.80;;;;;;5055677;28;20025;-87
2022/01/01 18:10:13;;;;;;;242.55;106.30;;;11.00;97.80;;;;;;5055620;28;20051;-87
2022/01/01 18:12:42;;;;;;;246.38;106.78;;;10.90;98.40;;;;;;5055684;28;20052;-87
2022/01/01 18:15:12;;;;;;;235.45;99.72;;;11.00;98.20;;;;;;5055133;28;20535;-87
2022/01/01 18:17:55;;;;;;;222.07;95.38;;;11.00;98.50;;;;;;5054768;28;20108;-87
2022/01/01 18:20:24;;;;;;;199.00;85.00;;;10.90;98.50;;;;;;5054756;28;20027;-86
2022/01/01 18:22:59;;;;;;;191.55;78.80;;;10.90;98.40;;;;;;5054732;28;20025;-87